Time;durP1;ratioP1;P1;durP2;ratioP2;P2;SDS_P1;SDS_P2;PMS_P1;PMS_P2;Temp;Humidity;BMP_temperature;BMP_pressure;BME280_temperature;BME280_humidity;BME280_pressure;Samples;Min_cycle;Max_cycle;Signal;HPM_P1;HPM_P2
2022/09/30 00:00:57;;;;;;;8.90;7.40;;;;;;;12.00;76.79;98574.19;4903011;29;20245;-76
2022/09/30 00:03:23;;;;;;;8.43;7.37;;;;;;;12.01;76.95;98582.91;4906767;29;20240;-76
2022/09/30 00:06:03;;;;;;;12.80;8.00;;;;;;;12.01;76.99;98570.59;4905528;29;20539;-75
2022/09/30 00:08:29;;;;;;;10.52;8.45;;;;;;;12.02;76.89;98569.63;4906653;29;20241;-76
2022/09/30 00:11:03;;;;;;;7.67;6.90;;;;;;;12.03;76.94;98559.94;4907568;29;20269;-76
2022/09/30 00:13:39;;;;;;;8.93;8.00;;;;;;;11.99;76.78;98563.78;4907718;29;20319;-77
2022/09/30 00:16:05;;;;;;;8.95;7.10;;;;;;;11.95;76.99;98571.94;4909856;29;20294;-78
2022/09/30 00:18:31;;;;;;;7.88;7.18;;;;;;;11.94;77.02;98580.00;4910030;29;20459;-76
2022/09/30 00:20:56;;;;;;;9.80;7.80;;;;;;;11.94;76.98;98583.44;4909793;29;20241;-77
2022/09/30 00:23:22;;;;;;;9.40;7.50;;;;;;;11.93;77.02;98583.56;4909289;29;20918;-76
2022/09/30 00:25:49;;;;;;;9.90;7.35;;;;;;;11.90;76.80;98583.84;4910251;29;20526;-76
2022/09/30 00:28:15;;;;;;;8.52;6.75;;;;;;;11.84;76.98;98592.22;4908701;29;20568;-77
2022/09/30 00:30:41;;;;;;;9.30;7.22;;;;;;;11.81;77.08;98593.31;4909118;29;20215;-76
2022/09/30 00:33:07;;;;;;;8.77;7.88;;;;;;;11.79;77.08;98589.16;4910327;29;20205;-78
2022/09/30 00:35:32;;;;;;;8.27;7.33;;;;;;;11.77;76.91;98598.97;4913738;29;20228;-76
2022/09/30 00:37:59;;;;;;;7.60;6.83;;;;;;;11.72;76.97;98599.38;4912648;29;20217;-77
2022/09/30 00:40:26;;;;;;;8.23;6.55;;;;;;;11.68;77.07;98598.78;4912923;29;20204;-76
2022/09/30 00:42:52;;;;;;;9.20;6.93;;;;;;;11.68;76.94;98601.41;4912093;29;20309;-76
2022/09/30 00:45:18;;;;;;;8.57;6.10;;;;;;;11.68;76.99;98604.03;4912298;29;20234;-76
2022/09/30 00:47:56;;;;;;;9.02;7.15;;;;;;;11.68;76.91;98606.66;4911713;29;20454;-77
2022/09/30 00:50:27;;;;;;;8.60;7.57;;;;;;;11.67;77.05;98612.09;4909056;29;20225;-76
2022/09/30 00:53:30;;;;;;;10.57;8.10;;;;;;;11.69;76.86;98618.03;4908967;29;20210;-77
2022/09/30 00:56:01;;;;;;;7.20;6.50;;;;;;;11.67;76.85;98619.97;4909456;29;20205;-77
2022/09/30 00:58:35;;;;;;;10.77;7.85;;;;;;;11.66;76.82;98618.28;4910525;29;20216;-78
2022/09/30 01:01:01;;;;;;;11.85;7.45;;;;;;;11.67;76.75;98614.72;4909146;29;20240;-77
2022/09/30 01:03:40;;;;;;;9.43;7.50;;;;;;;11.69;76.75;98618.88;4911247;29;20218;-76
2022/09/30 01:06:06;;;;;;;10.38;9.15;;;;;;;11.72;76.75;98616.00;4909420;29;20228;-76
2022/09/30 01:08:36;;;;;;;12.70;9.45;;;;;;;11.76;76.73;98623.63;4909462;29;20716;-77
2022/09/30 01:11:01;;;;;;;12.68;9.07;;;;;;;11.74;76.64;98624.56;4911174;29;20605;-76
2022/09/30 01:13:30;;;;;;;10.03;8.03;;;;;;;11.74;76.82;98626.38;4910574;29;20822;-77
2022/09/30 01:16:24;;;;;;;8.95;7.88;;;;;;;11.72;76.75;98610.72;4909916;29;20950;-76
2022/09/30 01:19:24;;;;;;;10.75;8.15;;;;;;;11.69;76.92;98616.25;4910208;29;20302;-76
2022/09/30 01:22:06;;;;;;;9.95;7.97;;;;;;;11.66;76.71;98621.75;4910301;29;20240;-76
2022/09/30 01:25:22;;;;;;;14.60;9.75;;;;;;;11.67;76.83;98623.44;4909296;29;20686;-78
2022/09/30 01:28:12;;;;;;;15.18;8.48;;;;;;;11.68;76.80;98619.81;4903553;29;20395;-78
2022/09/30 01:31:00;;;;;;;14.80;9.05;;;;;;;11.68;76.78;98622.44;4908007;29;20226;-76
2022/09/30 01:33:45;;;;;;;11.63;9.30;;;;;;;11.69;76.83;98615.38;4906814;29;21094;-76
2022/09/30 01:36:44;;;;;;;11.88;9.35;;;;;;;11.66;77.14;98616.47;4904361;29;20229;-76
2022/09/30 01:39:36;;;;;;;11.70;8.55;;;;;;;11.66;77.17;98621.75;4907415;29;20230;-76
2022/09/30 01:42:07;;;;;;;11.60;8.32;;;;;;;11.67;77.08;98617.34;4908113;29;20238;-76
2022/09/30 01:44:45;;;;;;;13.63;9.60;;;;;;;11.68;77.13;98614.56;4907118;29;20221;-76
2022/09/30 01:47:21;;;;;;;12.35;9.18;;;;;;;11.68;77.04;98616.38;4907675;29;20233;-76
2022/09/30 01:49:57;;;;;;;13.30;10.20;;;;;;;11.68;76.91;98611.94;4907318;29;20221;-76
2022/09/30 01:52:39;;;;;;;15.05;10.77;;;;;;;11.66;77.08;98613.84;4906984;29;20253;-76
2022/09/30 01:55:20;;;;;;;14.90;9.50;;;;;;;11.65;77.04;98617.47;4906698;29;20588;-77
2022/09/30 01:58:05;;;;;;;11.68;10.38;;;;;;;11.64;77.15;98618.44;4906695;29;20226;-76
2022/09/30 02:00:35;;;;;;;15.68;10.38;;;;;;;11.64;77.25;98614.97;4904043;29;20803;-76
2022/09/30 02:03:10;;;;;;;16.42;11.32;;;;;;;11.64;77.05;98626.31;4905578;29;20227;-76
2022/09/30 02:05:57;;;;;;;13.95;11.45;;;;;;;11.65;77.19;98625.34;4905926;29;20261;-76
2022/09/30 02:08:29;;;;;;;13.50;9.70;;;;;;;11.66;77.34;98631.44;4905297;29;20229;-78
2022/09/30 02:11:03;;;;;;;12.13;9.02;;;;;;;11.67;77.20;98638.38;4905409;29;20263;-76
2022/09/30 02:13:36;;;;;;;10.07;7.15;;;;;;;11.67;77.23;98633.94;4905527;29;20242;-78
2022/09/30 02:16:11;;;;;;;10.30;6.90;;;;;;;11.67;76.98;98638.38;4911334;29;20205;-79
2022/09/30 02:18:44;;;;;;;8.07;6.18;;;;;;;11.67;77.02;98635.75;4913738;29;20704;-76
2022/09/30 02:21:14;;;;;;;10.80;8.02;;;;;;;11.67;77.10;98643.66;4918758;29;20237;-76
2022/09/30 02:23:43;;;;;;;7.93;5.97;;;;;;;11.70;77.00;98644.22;4914578;29;20276;-77
2022/09/30 02:26:15;;;;;;;11.73;8.00;;;;;;;11.73;77.02;98643.13;4914852;29;20611;-76
2022/09/30 02:28:45;;;;;;;10.55;7.50;;;;;;;11.78;77.05;98648.00;4910974;29;20220;-76
2022/09/30 02:31:14;;;;;;;9.43;6.78;;;;;;;11.82;76.86;98655.50;4914404;29;20252;-76
2022/09/30 02:34:07;;;;;;;8.50;7.22;;;;;;;11.88;76.98;98651.53;4911332;29;20485;-78
2022/09/30 02:36:59;;;;;;;10.52;6.68;;;;;;;11.90;76.98;98653.09;4907698;29;20213;-77
2022/09/30 02:39:30;;;;;;;12.70;8.45;;;;;;;11.94;76.91;98653.69;4913207;29;21392;-77
2022/09/30 02:42:07;;;;;;;9.38;7.68;;;;;;;11.94;76.60;98651.03;4914820;29;20646;-79
2022/09/30 02:44:34;;;;;;;10.00;8.63;;;;;;;11.93;76.45;98658.09;4910202;29;20615;-77
2022/09/30 02:47:25;;;;;;;13.88;9.95;;;;;;;11.91;76.52;98657.41;4910423;29;20249;-79
2022/09/30 02:50:09;;;;;;;7.90;6.30;;;;;;;11.88;76.42;98652.41;4912358;29;20204;-76
2022/09/30 02:52:49;;;;;;;6.28;4.32;;;;;;;11.86;76.41;98649.06;4910601;29;20202;-79
2022/09/30 02:55:21;;;;;;;4.35;3.47;;;;;;;11.84;76.48;98650.13;4910475;29;20731;-79
2022/09/30 02:57:55;;;;;;;5.78;4.45;;;;;;;11.82;76.53;98644.97;4911708;29;20224;-76
2022/09/30 03:00:20;;;;;;;4.75;3.55;;;;;;;11.83;76.44;98648.47;4912924;29;20729;-78
2022/09/30 03:02:47;;;;;;;8.00;4.93;;;;;;;11.86;76.64;98643.78;4907192;29;20855;-76
2022/09/30 03:05:12;;;;;;;5.13;4.25;;;;;;;11.86;76.88;98654.31;4912621;29;20702;-76
2022/09/30 03:07:39;;;;;;;4.40;3.87;;;;;;;11.86;76.89;98651.69;4911582;29;20227;-77
2022/09/30 03:10:16;;;;;;;7.05;4.97;;;;;;;11.88;76.97;98657.66;4912798;29;20264;-76
2022/09/30 03:12:59;;;;;;;2.85;2.65;;;;;;;11.87;76.65;98652.50;4908423;29;20799;-78
2022/09/30 03:15:38;;;;;;;3.38;3.08;;;;;;;11.82;76.63;98665.19;4910473;29;20228;-76
2022/09/30 03:18:28;;;;;;;3.67;2.85;;;;;;;11.78;76.77;98663.78;4910979;29;20270;-78
2022/09/30 03:21:16;;;;;;;3.55;2.63;;;;;;;11.72;76.67;98655.44;4910150;29;20230;-77
2022/09/30 03:24:16;;;;;;;6.53;3.30;;;;;;;11.67;76.67;98657.63;4899250;29;20262;-76
2022/09/30 03:27:08;;;;;;;4.38;3.42;;;;;;;11.64;76.96;98663.16;4909100;29;20234;-78
2022/09/30 03:29:56;;;;;;;2.58;2.38;;;;;;;11.59;76.75;98667.94;4907553;29;20213;-76
2022/09/30 03:32:45;;;;;;;4.28;2.45;;;;;;;11.54;76.93;98667.50;4911089;29;20417;-76
2022/09/30 03:35:16;;;;;;;4.75;2.50;;;;;;;11.51;77.09;98671.22;4909510;29;20265;-76
2022/09/30 03:37:57;;;;;;;3.33;2.20;;;;;;;11.51;77.04;98673.84;4911083;29;20276;-76
2022/09/30 03:40:50;;;;;;;5.18;2.88;;;;;;;11.53;76.95;98684.25;4905074;29;20313;-76
2022/09/30 03:43:35;;;;;;;4.05;2.72;;;;;;;11.52;76.90;98687.81;4908613;29;20215;-78
2022/09/30 03:46:13;;;;;;;2.95;2.67;;;;;;;11.50;76.82;98695.84;4907013;29;20234;-76
2022/09/30 03:48:40;;;;;;;2.15;1.95;;;;;;;11.50;76.81;98695.84;4919408;29;20252;-77
2022/09/30 03:51:07;;;;;;;3.63;2.40;;;;;;;11.48;76.75;98691.69;4908085;29;20227;-76
2022/09/30 03:53:41;;;;;;;1.95;1.85;;;;;;;11.47;76.83;98701.34;4923128;29;20599;-76
2022/09/30 03:56:07;;;;;;;2.55;1.50;;;;;;;11.48;76.74;98696.94;4912194;29;20277;-78
2022/09/30 03:58:33;;;;;;;2.10;1.60;;;;;;;11.47;76.53;98703.13;4908108;29;20297;-76
2022/09/30 04:00:59;;;;;;;2.88;2.10;;;;;;;11.47;76.63;98705.75;4911972;29;20293;-77
2022/09/30 04:03:27;;;;;;;2.07;1.87;;;;;;;11.46;76.34;98709.38;4910699;29;20953;-77
2022/09/30 04:05:53;;;;;;;3.30;2.15;;;;;;;11.45;76.66;98708.53;4910151;29;20279;-76
2022/09/30 04:08:18;;;;;;;3.17;2.30;;;;;;;11.41;76.58;98708.91;4912053;29;20241;-78
2022/09/30 04:10:44;;;;;;;4.20;2.13;;;;;;;11.30;76.97;98710.59;4910608;29;20607;-79
2022/09/30 04:13:10;;;;;;;3.20;2.70;;;;;;;11.23;77.17;98722.59;4911647;29;20440;-76
2022/09/30 04:15:37;;;;;;;3.67;2.13;;;;;;;11.16;77.29;98728.47;4911853;29;20559;-76
2022/09/30 04:18:03;;;;;;;3.63;2.55;;;;;;;11.11;77.48;98731.44;4908218;29;20580;-76
2022/09/30 04:20:30;;;;;;;2.40;2.20;;;;;;;11.11;77.58;98735.88;4909806;29;20226;-76
2022/09/30 04:23:00;;;;;;;3.47;2.22;;;;;;;11.06;77.80;98737.06;4911836;29;20220;-77
2022/09/30 04:25:26;;;;;;;2.40;1.92;;;;;;;11.05;77.90;98732.78;4908371;29;20561;-76
2022/09/30 04:27:53;;;;;;;2.75;2.15;;;;;;;11.02;77.99;98737.44;4908824;29;20580;-76
2022/09/30 04:30:18;;;;;;;3.35;2.38;;;;;;;11.01;77.79;98738.38;4909165;29;20200;-78
2022/09/30 04:32:44;;;;;;;5.77;2.40;;;;;;;11.04;78.03;98738.13;4910688;29;21164;-76
2022/09/30 04:35:13;;;;;;;3.20;2.40;;;;;;;11.04;77.82;98740.75;4907215;29;20202;-76
2022/09/30 04:37:43;;;;;;;3.28;2.65;;;;;;;11.05;77.95;98739.81;4908444;29;20699;-78
2022/09/30 04:40:09;;;;;;;2.63;2.20;;;;;;;11.07;77.95;98744.00;4911669;29;20210;-76
2022/09/30 04:42:36;;;;;;;2.63;2.30;;;;;;;11.08;77.95;98743.03;4918159;29;20250;-77
2022/09/30 04:45:02;;;;;;;2.92;2.00;;;;;;;11.10;77.63;98748.19;4912166;29;20720;-76
2022/09/30 04:47:28;;;;;;;2.20;1.93;;;;;;;11.08;77.92;98750.09;4908686;29;20213;-76
2022/09/30 04:49:55;;;;;;;4.70;2.90;;;;;;;11.08;77.97;98748.28;4910561;29;20215;-78
2022/09/30 04:52:21;;;;;;;3.00;2.42;;;;;;;11.09;77.55;98746.50;4908308;29;20207;-77
2022/09/30 04:54:46;;;;;;;3.70;2.13;;;;;;;11.07;77.39;98749.25;4908436;29;20315;-77
2022/09/30 04:57:12;;;;;;;2.60;1.70;;;;;;;11.07;77.48;98751.03;4907393;29;20235;-76
2022/09/30 04:59:38;;;;;;;2.25;1.70;;;;;;;11.08;77.49;98747.47;4909613;29;20209;-76
2022/09/30 05:02:04;;;;;;;2.20;1.70;;;;;;;11.10;77.48;98752.56;4912537;29;20260;-76
2022/09/30 05:04:32;;;;;;;2.83;2.00;;;;;;;11.06;77.57;98752.81;4910956;29;20533;-76
2022/09/30 05:07:00;;;;;;;3.08;2.10;;;;;;;11.06;77.30;98750.19;4912870;28;20572;-77
2022/09/30 05:09:26;;;;;;;4.95;3.10;;;;;;;11.05;77.19;98759.06;4913954;29;20232;-78
2022/09/30 05:11:51;;;;;;;5.50;2.50;;;;;;;11.07;77.47;98751.88;4911146;29;20932;-76
2022/09/30 05:14:17;;;;;;;3.57;2.13;;;;;;;11.12;77.15;98759.38;4912775;29;20214;-77
2022/09/30 05:16:42;;;;;;;2.60;2.07;;;;;;;11.14;77.24;98757.47;4910672;29;20217;-76
2022/09/30 05:19:08;;;;;;;3.80;2.20;;;;;;;11.19;77.32;98759.75;4913404;29;20221;-76
2022/09/30 05:21:34;;;;;;;3.37;2.37;;;;;;;11.21;76.96;98756.03;4911590;29;20321;-76
2022/09/30 05:24:00;;;;;;;2.25;2.00;;;;;;;11.25;76.97;98752.19;4912243;29;20232;-76
2022/09/30 05:26:26;;;;;;;4.80;2.47;;;;;;;11.27;76.86;98758.19;4910865;29;20230;-78
2022/09/30 05:28:52;;;;;;;2.17;1.97;;;;;;;11.29;76.88;98764.16;4912165;29;20729;-79
2022/09/30 05:31:19;;;;;;;2.30;2.10;;;;;;;11.24;76.71;98771.56;4910939;29;20230;-77
2022/09/30 05:33:45;;;;;;;2.35;1.95;;;;;;;11.19;76.80;98775.53;4910774;29;20501;-76
2022/09/30 05:36:13;;;;;;;2.92;2.08;;;;;;;11.08;76.93;98779.00;4911033;29;20272;-76
2022/09/30 05:38:38;;;;;;;3.25;2.13;;;;;;;11.02;76.76;98782.94;4911546;29;20260;-77
2022/09/30 05:41:10;;;;;;;2.47;1.70;;;;;;;10.97;77.08;98792.97;4910501;29;20714;-77
2022/09/30 05:43:38;;;;;;;3.28;2.20;;;;;;;10.94;77.03;98793.22;4911117;29;20690;-76
2022/09/30 05:46:04;;;;;;;2.75;2.30;;;;;;;10.89;76.92;98797.16;4910406;29;20325;-76
2022/09/30 05:48:29;;;;;;;3.93;1.83;;;;;;;10.89;76.86;98798.00;4909559;29;20303;-76
2022/09/30 05:50:56;;;;;;;2.20;2.00;;;;;;;10.89;76.65;98803.25;4909534;29;20244;-77
2022/09/30 05:53:22;;;;;;;2.03;1.83;;;;;;;10.88;76.69;98804.19;4909579;29;20345;-78
2022/09/30 05:55:49;;;;;;;2.40;2.15;;;;;;;10.89;76.76;98807.69;4906546;29;20201;-78
2022/09/30 05:58:15;;;;;;;1.65;1.50;;;;;;;10.87;76.24;98805.16;4910975;29;20206;-77
2022/09/30 06:00:43;;;;;;;2.63;1.98;;;;;;;10.81;76.03;98806.47;4910453;29;20693;-77
2022/09/30 06:03:09;;;;;;;2.78;2.33;;;;;;;10.75;76.17;98801.69;4905323;29;20227;-77
2022/09/30 06:05:35;;;;;;;1.80;1.70;;;;;;;10.75;76.23;98806.13;4910904;29;20234;-77
2022/09/30 06:08:02;;;;;;;3.47;2.00;;;;;;;10.78;76.37;98811.13;4908481;29;21018;-76
2022/09/30 06:10:28;;;;;;;2.47;2.17;;;;;;;10.80;76.21;98811.84;4909636;29;20280;-78
2022/09/30 06:12:53;;;;;;;1.67;1.57;;;;;;;10.82;76.00;98816.00;4910385;29;20480;-76
2022/09/30 06:15:19;;;;;;;2.00;1.80;;;;;;;10.85;76.00;98821.06;4911018;28;20700;-76
2022/09/30 06:17:45;;;;;;;2.90;1.87;;;;;;;10.88;75.99;98824.38;4909717;29;20679;-77
2022/09/30 06:20:11;;;;;;;3.45;2.40;;;;;;;10.88;75.91;98827.84;4909391;29;20224;-76
2022/09/30 06:22:37;;;;;;;1.77;1.58;;;;;;;10.86;75.83;98824.53;4909896;29;20210;-77
2022/09/30 06:25:06;;;;;;;2.27;2.07;;;;;;;10.85;75.64;98833.34;4910795;29;20807;-77
2022/09/30 06:27:36;;;;;;;1.98;1.77;;;;;;;10.80;75.75;98827.59;4910568;29;20250;-78
2022/09/30 06:30:02;;;;;;;2.80;1.98;;;;;;;10.78;75.82;98830.34;4925400;29;20240;-76
2022/09/30 06:32:29;;;;;;;4.10;2.47;;;;;;;10.77;75.94;98839.16;4910156;29;20344;-76
2022/09/30 06:34:55;;;;;;;1.92;1.77;;;;;;;10.80;75.92;98840.72;4908131;29;20462;-76
2022/09/30 06:37:24;;;;;;;3.63;2.17;;;;;;;10.82;75.79;98846.72;4910167;29;20222;-77
2022/09/30 06:39:49;;;;;;;2.35;2.08;;;;;;;10.80;75.73;98854.72;4910545;29;20440;-76
2022/09/30 06:42:15;;;;;;;2.33;2.13;;;;;;;10.85;75.75;98862.22;4910098;29;20507;-76
2022/09/30 06:44:43;;;;;;;2.70;2.35;;;;;;;10.91;75.59;98861.78;4925088;29;20231;-76
2022/09/30 06:47:09;;;;;;;3.25;2.60;;;;;;;10.93;75.32;98864.28;4909042;29;20237;-76
2022/09/30 06:49:35;;;;;;;3.17;2.50;;;;;;;10.93;75.17;98867.72;4910777;29;20220;-77
2022/09/30 06:52:00;;;;;;;4.50;2.40;;;;;;;10.92;75.39;98875.75;4909788;29;20505;-76
2022/09/30 06:54:27;;;;;;;5.57;2.93;;;;;;;10.81;75.52;98877.41;4908507;29;20280;-78
2022/09/30 06:56:56;;;;;;;3.70;2.42;;;;;;;10.80;75.53;98880.13;4909519;29;20607;-77
2022/09/30 06:59:23;;;;;;;3.97;2.75;;;;;;;10.80;75.80;98873.13;4909171;29;20206;-76
2022/09/30 07:01:48;;;;;;;4.40;2.42;;;;;;;10.79;75.91;98867.97;4907543;29;20586;-77
2022/09/30 07:04:15;;;;;;;4.43;3.50;;;;;;;10.78;75.69;98872.38;4910326;29;20220;-76
2022/09/30 07:06:40;;;;;;;3.40;2.70;;;;;;;10.78;75.79;98877.63;4908357;29;20638;-78
2022/09/30 07:09:07;;;;;;;3.13;2.30;;;;;;;10.80;75.69;98882.75;4909174;29;20678;-78
2022/09/30 07:11:33;;;;;;;3.38;2.35;;;;;;;10.75;75.63;98883.13;4907592;29;20226;-78
2022/09/30 07:13:59;;;;;;;3.13;2.60;;;;;;;10.73;75.39;98882.41;4908529;29;20938;-76
2022/09/30 07:16:24;;;;;;;3.70;2.30;;;;;;;10.73;75.57;98889.44;4909005;29;20799;-76
2022/09/30 07:18:50;;;;;;;4.90;3.80;;;;;;;10.74;75.52;98891.13;4908990;29;20227;-76
2022/09/30 07:21:16;;;;;;;4.18;3.78;;;;;;;10.79;75.55;98889.81;4907732;29;20284;-77
2022/09/30 07:23:46;;;;;;;4.45;4.05;;;;;;;10.84;75.55;98886.84;4907930;29;20224;-77
2022/09/30 07:26:17;;;;;;;3.92;3.53;;;;;;;10.88;75.64;98892.69;4908936;29;20234;-78
2022/09/30 07:28:43;;;;;;;5.55;3.85;;;;;;;10.87;75.52;98896.28;4908249;29;20332;-76
2022/09/30 07:31:14;;;;;;;4.70;4.15;;;;;;;10.92;75.79;98904.66;4907961;29;20896;-76
2022/09/30 07:33:40;;;;;;;5.07;4.60;;;;;;;10.99;75.46;98909.34;4908768;29;20601;-78
2022/09/30 07:36:07;;;;;;;5.05;4.35;;;;;;;11.09;75.39;98909.44;4910020;29;20273;-78
2022/09/30 07:38:35;;;;;;;5.10;3.88;;;;;;;11.17;75.16;98914.94;4906919;29;20198;-77
2022/09/30 07:41:10;;;;;;;6.60;4.88;;;;;;;11.23;75.15;98914.50;4908885;29;20237;-76
2022/09/30 07:43:38;;;;;;;5.03;4.20;;;;;;;11.32;74.96;98912.09;4908651;29;20217;-76
2022/09/30 07:46:21;;;;;;;5.13;4.68;;;;;;;11.40;74.68;98928.94;4907579;29;20732;-76
2022/09/30 07:48:50;;;;;;;5.72;4.70;;;;;;;11.46;74.53;98928.47;4907612;29;20218;-76
2022/09/30 07:51:22;;;;;;;4.55;3.92;;;;;;;11.50;74.42;98926.41;4908327;29;20236;-78
2022/09/30 07:53:55;;;;;;;5.50;4.53;;;;;;;11.51;74.50;98934.19;4907612;29;20254;-76
2022/09/30 07:56:22;;;;;;;6.05;4.78;;;;;;;11.55;74.49;98940.06;4908625;29;20215;-76
2022/09/30 07:58:48;;;;;;;6.55;4.70;;;;;;;11.59;74.59;98945.94;4907270;29;20686;-77
2022/09/30 08:01:15;;;;;;;6.70;5.20;;;;;;;11.66;74.54;98947.94;4908186;29;20823;-76
2022/09/30 08:03:43;;;;;;;6.75;5.38;;;;;;;11.74;74.37;98952.59;4906447;29;20443;-77
2022/09/30 08:06:17;;;;;;;6.40;5.80;;;;;;;11.79;74.30;98960.13;4907803;29;20347;-76
2022/09/30 08:08:44;;;;;;;6.82;5.43;;;;;;;11.79;74.20;98966.22;4907478;29;20210;-76
2022/09/30 08:11:12;;;;;;;4.85;4.25;;;;;;;11.79;74.03;98968.03;4907398;29;20257;-77
2022/09/30 08:13:41;;;;;;;5.90;5.30;;;;;;;11.77;74.06;98965.50;4907775;29;20669;-78
2022/09/30 08:16:06;;;;;;;6.28;3.85;;;;;;;11.79;73.93;98974.13;4906586;29;20762;-78
2022/09/30 08:18:32;;;;;;;5.40;4.77;;;;;;;11.84;73.75;98971.97;4906777;29;20213;-76
2022/09/30 08:21:05;;;;;;;5.70;4.80;;;;;;;11.92;73.59;98979.28;4907440;29;20247;-76
2022/09/30 08:23:32;;;;;;;5.45;4.45;;;;;;;11.97;72.89;98973.66;4908871;29;20217;-78
2022/09/30 08:26:09;;;;;;;10.18;4.68;;;;;;;11.95;73.00;98979.88;4907526;29;20230;-77
2022/09/30 08:28:36;;;;;;;5.82;4.45;;;;;;;11.98;72.86;98977.97;4907953;29;20844;-78
2022/09/30 08:31:11;;;;;;;4.32;3.60;;;;;;;12.05;72.66;98973.91;4907668;29;20206;-77
2022/09/30 08:33:38;;;;;;;4.38;3.97;;;;;;;12.11;72.54;98974.22;4908033;29;20217;-76
2022/09/30 08:36:09;;;;;;;4.03;3.40;;;;;;;12.20;72.18;98970.00;4907740;29;20203;-77
2022/09/30 08:38:35;;;;;;;6.13;5.15;;;;;;;12.31;72.17;98983.19;4910014;29;20609;-76
2022/09/30 08:41:19;;;;;;;6.88;4.18;;;;;;;12.38;71.90;98976.44;4911257;29;20230;-77
2022/09/30 08:44:09;;;;;;;5.30;4.10;;;;;;;12.46;71.85;98980.25;4909966;29;20209;-76
2022/09/30 08:46:46;;;;;;;5.00;3.20;;;;;;;12.54;71.52;98980.47;4910755;29;20336;-76
2022/09/30 08:49:31;;;;;;;5.55;4.07;;;;;;;12.63;70.84;98982.31;4910844;29;20297;-77
2022/09/30 08:52:00;;;;;;;4.90;4.03;;;;;;;12.68;71.02;98992.50;4911328;29;20246;-76
2022/09/30 08:54:30;;;;;;;5.70;4.45;;;;;;;12.75;70.74;98993.69;4910486;29;20213;-78
2022/09/30 08:56:57;;;;;;;3.63;3.25;;;;;;;12.80;70.50;98994.97;4909619;29;20218;-76
2022/09/30 08:59:43;;;;;;;3.38;3.08;;;;;;;12.86;70.38;98991.00;4910086;29;20292;-77
2022/09/30 09:02:31;;;;;;;4.97;4.20;;;;;;;12.88;70.32;98994.34;4910710;29;20246;-76
2022/09/30 09:05:00;;;;;;;4.95;4.07;;;;;;;12.93;70.32;98986.03;4909572;29;20217;-76
2022/09/30 09:07:55;;;;;;;4.50;4.15;;;;;;;12.99;70.22;98999.56;4909232;29;20225;-76
2022/09/30 09:10:40;;;;;;;4.30;3.90;;;;;;;13.03;70.02;98995.69;4907760;29;20237;-76
2022/09/30 09:13:53;;;;;;;6.22;4.32;;;;;;;13.07;69.81;98999.75;4913385;29;20348;-78
2022/09/30 09:16:43;;;;;;;5.28;4.78;;;;;;;13.08;69.62;99005.84;4905958;29;20890;-78
2022/09/30 09:19:21;;;;;;;5.38;4.90;;;;;;;13.05;69.71;99006.09;4905350;29;20225;-76
2022/09/30 09:22:01;;;;;;;6.57;5.50;;;;;;;13.07;69.95;99010.28;4907898;29;20247;-76
2022/09/30 09:24:34;;;;;;;8.63;5.80;;;;;;;13.09;69.90;99011.94;4908787;29;20214;-76
2022/09/30 09:27:15;;;;;;;9.88;6.25;;;;;;;13.06;69.87;99008.59;4908125;29;20271;-78
2022/09/30 09:30:06;;;;;;;8.30;6.40;;;;;;;13.03;69.93;99019.41;4908848;29;20223;-76
2022/09/30 09:32:32;;;;;;;17.60;9.52;;;;;;;13.01;69.82;99015.22;4908650;29;20213;-76
2022/09/30 09:35:05;;;;;;;7.35;6.65;;;;;;;12.96;70.12;99018.25;4907670;29;20307;-78
2022/09/30 09:38:24;;;;;;;5.85;5.32;;;;;;;12.90;70.11;99031.94;4924169;29;20259;-76
2022/09/30 09:41:01;;;;;;;7.70;6.53;;;;;;;12.89;70.38;99040.81;4903538;29;20328;-77
2022/09/30 09:43:57;;;;;;;7.68;6.82;;;;;;;12.89;70.51;99042.63;4907771;29;20273;-76
2022/09/30 09:46:51;;;;;;;7.70;6.40;;;;;;;12.90;70.69;99039.84;4909179;29;20293;-76
2022/09/30 09:49:19;;;;;;;6.97;5.93;;;;;;;12.87;70.71;99053.28;4908747;29;20224;-77
2022/09/30 09:52:04;;;;;;;6.20;5.60;;;;;;;12.88;70.83;99052.31;4909908;29;20757;-77
2022/09/30 09:54:32;;;;;;;7.22;6.63;;;;;;;12.92;70.49;99053.72;4910717;29;20687;-76
2022/09/30 09:57:08;;;;;;;6.53;5.90;;;;;;;12.98;70.40;99044.47;4910628;29;20301;-77
2022/09/30 09:59:34;;;;;;;8.27;6.70;;;;;;;13.01;70.27;99050.31;4909902;29;20514;-76
2022/09/30 10:01:59;;;;;;;7.07;6.03;;;;;;;13.07;70.12;99051.66;4957114;23;20268;-79
2022/09/30 10:04:29;;;;;;;10.13;6.00;;;;;;;13.13;69.79;99047.66;4890232;29;20465;-79
2022/09/30 10:06:58;;;;;;;6.53;5.60;;;;;;;13.20;69.43;99041.72;4898507;29;20714;-79
2022/09/30 10:09:34;;;;;;;7.10;6.50;;;;;;;13.28;69.38;99041.97;4904983;29;20214;-81
2022/09/30 10:12:27;;;;;;;7.43;6.35;;;;;;;13.45;68.94;99050.28;4904910;29;20324;-79
2022/09/30 10:15:02;;;;;;;10.05;7.18;;;;;;;13.57;68.38;99057.13;4904683;29;20220;-79
2022/09/30 10:17:30;;;;;;;11.65;6.93;;;;;;;13.64;68.07;99054.81;4904738;29;20212;-79
2022/09/30 10:20:14;;;;;;;8.27;6.82;;;;;;;13.74;67.84;99058.31;4904468;29;20218;-79
2022/09/30 10:22:40;;;;;;;9.43;7.95;;;;;;;13.86;67.43;99064.38;4904151;29;20769;-79
2022/09/30 10:25:17;;;;;;;8.77;7.40;;;;;;;13.93;66.85;99055.81;4904351;29;20210;-81
2022/09/30 10:27:53;;;;;;;7.72;6.60;;;;;;;13.99;66.84;99056.22;4906623;29;20468;-79
2022/09/30 10:30:29;;;;;;;9.38;8.23;;;;;;;14.05;66.51;99061.81;4904624;29;20686;-79
2022/09/30 10:32:54;;;;;;;11.50;9.00;;;;;;;14.02;66.36;99061.25;4904183;29;20599;-79
2022/09/30 10:35:22;;;;;;;11.27;9.47;;;;;;;14.00;66.45;99061.38;4908510;29;20236;-79
2022/09/30 10:37:52;;;;;;;11.75;8.82;;;;;;;13.99;66.58;99065.00;4904432;29;20202;-78
2022/09/30 10:40:22;;;;;;;10.40;8.05;;;;;;;14.02;66.49;99055.97;4904191;29;20210;-79
2022/09/30 10:42:50;;;;;;;11.35;8.80;;;;;;;14.03;66.66;99050.53;4903984;29;20241;-79
2022/09/30 10:45:37;;;;;;;11.55;8.50;;;;;;;14.11;66.16;99047.25;4904537;29;20317;-79
2022/09/30 10:48:14;;;;;;;8.93;8.02;;;;;;;14.11;66.01;99042.78;4903848;29;20222;-81
2022/09/30 10:50:52;;;;;;;10.32;9.02;;;;;;;14.14;66.27;99037.22;4903981;29;20522;-79
2022/09/30 10:53:23;;;;;;;9.57;8.30;;;;;;;14.20;65.92;99035.03;4904040;29;20304;-79
2022/09/30 10:55:50;;;;;;;8.95;8.05;;;;;;;14.20;65.66;99038.50;4903740;29;20211;-79
2022/09/30 10:58:50;;;;;;;10.57;9.00;;;;;;;14.01;65.50;99047.19;4903671;29;20444;-78
2022/09/30 11:01:24;;;;;;;10.05;8.65;;;;;;;13.90;66.05;99045.47;4903979;29;20210;-79
2022/09/30 11:04:11;;;;;;;12.63;8.27;;;;;;;13.87;66.30;99048.38;4903547;29;20464;-80
2022/09/30 11:06:39;;;;;;;9.82;8.27;;;;;;;13.92;66.38;99048.00;4903898;29;20238;-79
2022/09/30 11:09:16;;;;;;;8.60;7.68;;;;;;;13.98;65.97;99046.63;4903693;29;20352;-79
2022/09/30 11:11:50;;;;;;;7.60;6.40;;;;;;;14.03;65.33;99049.72;4903824;29;20295;-80
2022/09/30 11:14:25;;;;;;;9.32;7.00;;;;;;;14.01;65.53;99046.38;4903131;29;20737;-79
2022/09/30 11:17:22;;;;;;;10.70;8.05;;;;;;;14.06;65.52;99052.09;4903375;29;20209;-80
2022/09/30 11:20:08;;;;;;;10.40;8.88;;;;;;;14.16;65.53;99052.97;4903227;29;20219;-80
2022/09/30 11:22:33;;;;;;;9.15;6.65;;;;;;;14.16;65.25;99047.69;4903662;29;20108;-80
2022/09/30 11:24:59;;;;;;;8.30;7.33;;;;;;;14.23;65.60;99047.97;4903303;29;20213;-78
2022/09/30 11:27:27;;;;;;;9.13;8.07;;;;;;;14.31;65.25;99046.34;4903536;29;20305;-78
2022/09/30 11:30:00;;;;;;;8.82;7.82;;;;;;;14.34;65.04;99050.53;4903169;29;20496;-80
2022/09/30 11:32:59;;;;;;;10.95;8.07;;;;;;;14.36;65.00;99048.56;4903609;29;20257;-79
2022/09/30 11:35:42;;;;;;;7.85;6.22;;;;;;;14.38;64.47;99054.53;4903627;29;20293;-80
2022/09/30 11:38:32;;;;;;;7.90;6.60;;;;;;;14.31;64.41;99059.56;4903552;29;20331;-79
2022/09/30 11:41:12;;;;;;;9.43;7.07;;;;;;;14.41;63.91;99049.00;4903675;29;20627;-79
2022/09/30 11:43:53;;;;;;;11.40;6.35;;;;;;;14.43;63.70;99054.16;4903789;29;20281;-79
2022/09/30 11:46:31;;;;;;;8.57;6.68;;;;;;;14.51;63.58;99054.31;4902729;29;20283;-80
2022/09/30 11:49:18;;;;;;;9.77;6.63;;;;;;;14.57;63.28;99061.72;4903265;29;20587;-79
2022/09/30 11:52:08;;;;;;;10.32;6.50;;;;;;;14.60;63.08;99056.97;4903380;29;20656;-79
2022/09/30 11:54:51;;;;;;;7.65;6.50;;;;;;;14.67;63.24;99053.81;4903468;29;20229;-79
2022/09/30 11:57:31;;;;;;;6.82;5.53;;;;;;;14.75;63.08;99046.84;4903409;29;20448;-79
2022/09/30 12:00:03;;;;;;;11.82;7.57;;;;;;;14.83;62.91;99049.66;4903516;29;20385;-79